sensor_id;sensor_type;location;lat;lon;timestamp;P1;durP1;ratioP1;P2;durP2;ratioP2
71475;SDS011;59286;59.274;17.974;2023-12-29T00:02:12;2.28;;;1.30;;
71475;SDS011;59286;59.274;17.974;2023-12-29T00:04:37;2.10;;;1.23;;
71475;SDS011;59286;59.274;17.974;2023-12-29T00:07:03;1.50;;;1.17;;
71475;SDS011;59286;59.274;17.974;2023-12-29T00:09:29;5.47;;;1.30;;
71475;SDS011;59286;59.274;17.974;2023-12-29T00:11:54;2.38;;;1.30;;
71475;SDS011;59286;59.274;17.974;2023-12-29T00:14:22;2.97;;;1.20;;
71475;SDS011;59286;59.274;17.974;2023-12-29T00:16:48;2.20;;;1.23;;
71475;SDS011;59286;59.274;17.974;2023-12-29T00:19:13;1.67;;;1.35;;
71475;SDS011;59286;59.274;17.974;2023-12-29T00:21:39;2.50;;;1.15;;
71475;SDS011;59286;59.274;17.974;2023-12-29T00:24:05;1.58;;;0.88;;
71475;SDS011;59286;59.274;17.974;2023-12-29T00:26:30;1.42;;;1.30;;
71475;SDS011;59286;59.274;17.974;2023-12-29T00:28:56;1.58;;;0.77;;
71475;SDS011;59286;59.274;17.974;2023-12-29T00:31:21;3.08;;;1.52;;
71475;SDS011;59286;59.274;17.974;2023-12-29T00:33:47;3.10;;;1.60;;
71475;SDS011;59286;59.274;17.974;2023-12-29T00:36:15;2.78;;;0.90;;
71475;SDS011;59286;59.274;17.974;2023-12-29T00:38:41;2.03;;;1.10;;
71475;SDS011;59286;59.274;17.974;2023-12-29T00:41:07;2.50;;;1.33;;
71475;SDS011;59286;59.274;17.974;2023-12-29T00:43:32;3.28;;;1.40;;
71475;SDS011;59286;59.274;17.974;2023-12-29T00:45:58;1.38;;;1.10;;
71475;SDS011;59286;59.274;17.974;2023-12-29T00:48:23;1.10;;;0.88;;
71475;SDS011;59286;59.274;17.974;2023-12-29T00:50:48;1.70;;;1.17;;
71475;SDS011;59286;59.274;17.974;2023-12-29T00:53:14;1.95;;;0.93;;
71475;SDS011;59286;59.274;17.974;2023-12-29T00:55:39;1.15;;;1.00;;
71475;SDS011;59286;59.274;17.974;2023-12-29T00:58:05;2.05;;;1.10;;
71475;SDS011;59286;59.274;17.974;2023-12-29T01:00:30;4.85;;;1.20;;
71475;SDS011;59286;59.274;17.974;2023-12-29T01:02:55;2.60;;;1.30;;
71475;SDS011;59286;59.274;17.974;2023-12-29T01:05:21;2.42;;;1.42;;
71475;SDS011;59286;59.274;17.974;2023-12-29T01:07:47;6.53;;;2.22;;
71475;SDS011;59286;59.274;17.974;2023-12-29T01:10:12;3.65;;;2.22;;
71475;SDS011;59286;59.274;17.974;2023-12-29T01:12:37;4.65;;;2.75;;
71475;SDS011;59286;59.274;17.974;2023-12-29T01:15:03;3.67;;;2.75;;
71475;SDS011;59286;59.274;17.974;2023-12-29T01:17:29;6.07;;;2.85;;
71475;SDS011;59286;59.274;17.974;2023-12-29T01:19:54;4.60;;;2.78;;
71475;SDS011;59286;59.274;17.974;2023-12-29T01:22:20;4.78;;;3.00;;
71475;SDS011;59286;59.274;17.974;2023-12-29T01:24:45;3.60;;;2.33;;
71475;SDS011;59286;59.274;17.974;2023-12-29T01:27:11;1.85;;;1.65;;
71475;SDS011;59286;59.274;17.974;2023-12-29T01:29:36;3.92;;;2.60;;
71475;SDS011;59286;59.274;17.974;2023-12-29T01:32:02;2.42;;;2.22;;
71475;SDS011;59286;59.274;17.974;2023-12-29T01:34:28;4.78;;;2.30;;
71475;SDS011;59286;59.274;17.974;2023-12-29T01:36:58;6.25;;;3.28;;
71475;SDS011;59286;59.274;17.974;2023-12-29T01:39:23;6.93;;;3.42;;
71475;SDS011;59286;59.274;17.974;2023-12-29T01:41:49;5.30;;;2.40;;
71475;SDS011;59286;59.274;17.974;2023-12-29T01:44:20;6.68;;;2.65;;
71475;SDS011;59286;59.274;17.974;2023-12-29T01:46:47;6.10;;;3.00;;
71475;SDS011;59286;59.274;17.974;2023-12-29T01:49:17;5.45;;;2.85;;
71475;SDS011;59286;59.274;17.974;2023-12-29T01:51:44;5.00;;;3.13;;
71475;SDS011;59286;59.274;17.974;2023-12-29T01:54:12;7.38;;;3.35;;
71475;SDS011;59286;59.274;17.974;2023-12-29T01:56:38;4.18;;;2.22;;
71475;SDS011;59286;59.274;17.974;2023-12-29T01:59:04;4.63;;;2.55;;
71475;SDS011;59286;59.274;17.974;2023-12-29T02:01:30;9.07;;;3.63;;
71475;SDS011;59286;59.274;17.974;2023-12-29T02:03:56;6.25;;;3.03;;
71475;SDS011;59286;59.274;17.974;2023-12-29T02:06:22;11.10;;;3.72;;
71475;SDS011;59286;59.274;17.974;2023-12-29T02:08:51;10.23;;;3.85;;
71475;SDS011;59286;59.274;17.974;2023-12-29T02:11:17;5.72;;;4.15;;
71475;SDS011;59286;59.274;17.974;2023-12-29T02:13:43;7.53;;;3.80;;
71475;SDS011;59286;59.274;17.974;2023-12-29T02:16:56;6.40;;;2.60;;
71475;SDS011;59286;59.274;17.974;2023-12-29T02:19:04;6.05;;;2.65;;
71475;SDS011;59286;59.274;17.974;2023-12-29T02:21:49;5.57;;;2.47;;
71475;SDS011;59286;59.274;17.974;2023-12-29T02:24:15;4.28;;;2.70;;
71475;SDS011;59286;59.274;17.974;2023-12-29T02:26:40;3.38;;;2.00;;
71475;SDS011;59286;59.274;17.974;2023-12-29T02:29:10;9.07;;;4.15;;
71475;SDS011;59286;59.274;17.974;2023-12-29T02:31:41;5.47;;;3.10;;
71475;SDS011;59286;59.274;17.974;2023-12-29T02:34:12;3.63;;;2.60;;
71475;SDS011;59286;59.274;17.974;2023-12-29T02:36:39;9.55;;;3.83;;
71475;SDS011;59286;59.274;17.974;2023-12-29T02:39:08;7.10;;;3.63;;
71475;SDS011;59286;59.274;17.974;2023-12-29T02:41:35;12.07;;;5.00;;
71475;SDS011;59286;59.274;17.974;2023-12-29T02:44:01;14.07;;;4.82;;
71475;SDS011;59286;59.274;17.974;2023-12-29T02:46:26;13.35;;;4.63;;
71475;SDS011;59286;59.274;17.974;2023-12-29T02:48:52;20.10;;;4.30;;
71475;SDS011;59286;59.274;17.974;2023-12-29T02:51:17;27.10;;;6.13;;
71475;SDS011;59286;59.274;17.974;2023-12-29T02:53:42;28.73;;;5.57;;
71475;SDS011;59286;59.274;17.974;2023-12-29T02:56:08;15.88;;;5.20;;
71475;SDS011;59286;59.274;17.974;2023-12-29T02:58:33;33.97;;;6.78;;
71475;SDS011;59286;59.274;17.974;2023-12-29T03:00:58;28.92;;;5.03;;
71475;SDS011;59286;59.274;17.974;2023-12-29T03:03:24;22.60;;;5.85;;
71475;SDS011;59286;59.274;17.974;2023-12-29T03:05:49;45.33;;;5.63;;
71475;SDS011;59286;59.274;17.974;2023-12-29T03:08:17;42.33;;;6.82;;
71475;SDS011;59286;59.274;17.974;2023-12-29T03:10:42;66.68;;;6.63;;
71475;SDS011;59286;59.274;17.974;2023-12-29T03:13:07;47.13;;;7.65;;
71475;SDS011;59286;59.274;17.974;2023-12-29T03:15:33;70.05;;;7.32;;
71475;SDS011;59286;59.274;17.974;2023-12-29T03:17:58;60.63;;;7.75;;
71475;SDS011;59286;59.274;17.974;2023-12-29T03:20:23;48.35;;;7.25;;
71475;SDS011;59286;59.274;17.974;2023-12-29T03:22:49;63.22;;;7.57;;
71475;SDS011;59286;59.274;17.974;2023-12-29T03:25:14;56.58;;;8.00;;
71475;SDS011;59286;59.274;17.974;2023-12-29T03:27:42;62.83;;;7.68;;
71475;SDS011;59286;59.274;17.974;2023-12-29T03:30:07;32.33;;;6.40;;
71475;SDS011;59286;59.274;17.974;2023-12-29T03:32:33;19.27;;;5.10;;
71475;SDS011;59286;59.274;17.974;2023-12-29T03:34:58;91.15;;;7.07;;
71475;SDS011;59286;59.274;17.974;2023-12-29T03:37:24;48.13;;;7.63;;
71475;SDS011;59286;59.274;17.974;2023-12-29T03:39:49;40.60;;;6.00;;
71475;SDS011;59286;59.274;17.974;2023-12-29T03:42:15;49.15;;;7.43;;
71475;SDS011;59286;59.274;17.974;2023-12-29T03:44:40;55.80;;;7.82;;
71475;SDS011;59286;59.274;17.974;2023-12-29T03:47:05;72.78;;;8.57;;
71475;SDS011;59286;59.274;17.974;2023-12-29T03:49:31;38.20;;;6.07;;
71475;SDS011;59286;59.274;17.974;2023-12-29T03:51:56;44.95;;;8.25;;
71475;SDS011;59286;59.274;17.974;2023-12-29T03:54:21;47.25;;;7.50;;
71475;SDS011;59286;59.274;17.974;2023-12-29T03:56:50;24.58;;;6.30;;
71475;SDS011;59286;59.274;17.974;2023-12-29T03:59:15;35.70;;;6.90;;
71475;SDS011;59286;59.274;17.974;2023-12-29T04:01:40;21.23;;;6.03;;
71475;SDS011;59286;59.274;17.974;2023-12-29T04:04:06;44.47;;;8.43;;
71475;SDS011;59286;59.274;17.974;2023-12-29T04:06:31;27.85;;;7.00;;
71475;SDS011;59286;59.274;17.974;2023-12-29T04:08:57;24.63;;;6.47;;
71475;SDS011;59286;59.274;17.974;2023-12-29T04:11:22;16.98;;;5.80;;
71475;SDS011;59286;59.274;17.974;2023-12-29T04:13:48;18.42;;;5.40;;
71475;SDS011;59286;59.274;17.974;2023-12-29T04:16:13;14.98;;;5.82;;
71475;SDS011;59286;59.274;17.974;2023-12-29T04:18:38;15.35;;;4.97;;
71475;SDS011;59286;59.274;17.974;2023-12-29T04:21:04;22.30;;;5.93;;
71475;SDS011;59286;59.274;17.974;2023-12-29T04:23:29;19.95;;;5.05;;
71475;SDS011;59286;59.274;17.974;2023-12-29T04:25:55;17.80;;;5.97;;
71475;SDS011;59286;59.274;17.974;2023-12-29T04:28:21;19.25;;;6.10;;
71475;SDS011;59286;59.274;17.974;2023-12-29T04:30:46;14.57;;;5.13;;
71475;SDS011;59286;59.274;17.974;2023-12-29T04:33:11;17.05;;;5.68;;
71475;SDS011;59286;59.274;17.974;2023-12-29T04:35:37;12.90;;;5.15;;
71475;SDS011;59286;59.274;17.974;2023-12-29T04:38:02;20.23;;;6.35;;
71475;SDS011;59286;59.274;17.974;2023-12-29T04:40:28;15.48;;;5.22;;
71475;SDS011;59286;59.274;17.974;2023-12-29T04:42:53;15.95;;;5.20;;
71475;SDS011;59286;59.274;17.974;2023-12-29T04:45:19;14.60;;;4.60;;
71475;SDS011;59286;59.274;17.974;2023-12-29T04:47:44;11.25;;;4.03;;
71475;SDS011;59286;59.274;17.974;2023-12-29T04:50:10;8.88;;;3.78;;
71475;SDS011;59286;59.274;17.974;2023-12-29T04:52:35;12.90;;;4.82;;
71475;SDS011;59286;59.274;17.974;2023-12-29T04:55:01;8.73;;;4.28;;
71475;SDS011;59286;59.274;17.974;2023-12-29T04:57:29;10.75;;;3.67;;
71475;SDS011;59286;59.274;17.974;2023-12-29T04:59:54;5.50;;;2.97;;
71475;SDS011;59286;59.274;17.974;2023-12-29T05:02:19;10.88;;;3.63;;
71475;SDS011;59286;59.274;17.974;2023-12-29T05:04:45;8.50;;;3.78;;
71475;SDS011;59286;59.274;17.974;2023-12-29T05:07:11;7.40;;;3.42;;
71475;SDS011;59286;59.274;17.974;2023-12-29T05:09:36;4.93;;;2.92;;
71475;SDS011;59286;59.274;17.974;2023-12-29T05:12:02;5.70;;;2.85;;
71475;SDS011;59286;59.274;17.974;2023-12-29T05:14:27;6.70;;;3.42;;
71475;SDS011;59286;59.274;17.974;2023-12-29T05:16:53;5.47;;;2.75;;
71475;SDS011;59286;59.274;17.974;2023-12-29T05:19:19;4.85;;;2.60;;
71475;SDS011;59286;59.274;17.974;2023-12-29T05:21:44;4.45;;;2.75;;
71475;SDS011;59286;59.274;17.974;2023-12-29T05:24:09;6.53;;;2.63;;
71475;SDS011;59286;59.274;17.974;2023-12-29T05:26:35;7.32;;;2.60;;
71475;SDS011;59286;59.274;17.974;2023-12-29T05:29:01;5.40;;;2.70;;
71475;SDS011;59286;59.274;17.974;2023-12-29T05:31:27;5.93;;;2.60;;
71475;SDS011;59286;59.274;17.974;2023-12-29T05:33:53;4.93;;;2.78;;
71475;SDS011;59286;59.274;17.974;2023-12-29T05:36:20;6.03;;;2.80;;
71475;SDS011;59286;59.274;17.974;2023-12-29T05:38:46;4.13;;;2.70;;
71475;SDS011;59286;59.274;17.974;2023-12-29T05:41:15;5.80;;;2.55;;
71475;SDS011;59286;59.274;17.974;2023-12-29T05:43:40;5.68;;;3.13;;
71475;SDS011;59286;59.274;17.974;2023-12-29T05:46:10;7.72;;;3.53;;
71475;SDS011;59286;59.274;17.974;2023-12-29T05:48:36;5.47;;;3.22;;
71475;SDS011;59286;59.274;17.974;2023-12-29T05:51:07;7.35;;;3.78;;
71475;SDS011;59286;59.274;17.974;2023-12-29T05:53:35;11.02;;;4.07;;
71475;SDS011;59286;59.274;17.974;2023-12-29T05:56:04;12.93;;;4.97;;
71475;SDS011;59286;59.274;17.974;2023-12-29T05:58:29;11.48;;;4.60;;
71475;SDS011;59286;59.274;17.974;2023-12-29T06:00:55;14.93;;;4.95;;
71475;SDS011;59286;59.274;17.974;2023-12-29T06:03:21;16.60;;;5.18;;
71475;SDS011;59286;59.274;17.974;2023-12-29T06:05:47;14.20;;;4.40;;
71475;SDS011;59286;59.274;17.974;2023-12-29T06:08:13;9.10;;;4.53;;
71475;SDS011;59286;59.274;17.974;2023-12-29T06:10:38;15.82;;;5.78;;
71475;SDS011;59286;59.274;17.974;2023-12-29T06:13:11;8.48;;;4.22;;
71475;SDS011;59286;59.274;17.974;2023-12-29T06:15:37;7.88;;;4.05;;
71475;SDS011;59286;59.274;17.974;2023-12-29T06:18:05;21.52;;;5.45;;
71475;SDS011;59286;59.274;17.974;2023-12-29T06:20:36;28.90;;;6.97;;
71475;SDS011;59286;59.274;17.974;2023-12-29T06:23:02;12.93;;;5.65;;
71475;SDS011;59286;59.274;17.974;2023-12-29T06:25:27;12.05;;;6.22;;
71475;SDS011;59286;59.274;17.974;2023-12-29T06:27:53;18.52;;;7.18;;
71475;SDS011;59286;59.274;17.974;2023-12-29T06:30:19;8.35;;;4.85;;
71475;SDS011;59286;59.274;17.974;2023-12-29T06:32:45;27.10;;;7.47;;
71475;SDS011;59286;59.274;17.974;2023-12-29T06:35:10;18.52;;;6.90;;
71475;SDS011;59286;59.274;17.974;2023-12-29T06:37:38;18.60;;;6.85;;
71475;SDS011;59286;59.274;17.974;2023-12-29T06:40:05;38.58;;;9.65;;
71475;SDS011;59286;59.274;17.974;2023-12-29T06:42:34;30.38;;;9.95;;
71475;SDS011;59286;59.274;17.974;2023-12-29T06:44:59;25.33;;;8.80;;
71475;SDS011;59286;59.274;17.974;2023-12-29T06:47:25;32.58;;;9.73;;
71475;SDS011;59286;59.274;17.974;2023-12-29T06:49:50;25.88;;;9.40;;
71475;SDS011;59286;59.274;17.974;2023-12-29T06:52:16;10.07;;;5.93;;
71475;SDS011;59286;59.274;17.974;2023-12-29T06:54:41;31.25;;;8.90;;
71475;SDS011;59286;59.274;17.974;2023-12-29T06:57:07;28.25;;;8.00;;
71475;SDS011;59286;59.274;17.974;2023-12-29T06:59:32;55.00;;;11.07;;
71475;SDS011;59286;59.274;17.974;2023-12-29T07:01:58;68.93;;;13.98;;
71475;SDS011;59286;59.274;17.974;2023-12-29T07:04:23;55.67;;;14.25;;
71475;SDS011;59286;59.274;17.974;2023-12-29T07:06:49;28.13;;;10.15;;
71475;SDS011;59286;59.274;17.974;2023-12-29T07:09:14;31.55;;;9.35;;
71475;SDS011;59286;59.274;17.974;2023-12-29T07:11:40;36.08;;;10.07;;
71475;SDS011;59286;59.274;17.974;2023-12-29T07:14:05;19.67;;;7.32;;
71475;SDS011;59286;59.274;17.974;2023-12-29T07:16:33;18.45;;;6.85;;
71475;SDS011;59286;59.274;17.974;2023-12-29T07:19:02;14.45;;;5.80;;
71475;SDS011;59286;59.274;17.974;2023-12-29T07:21:30;16.48;;;5.97;;
71475;SDS011;59286;59.274;17.974;2023-12-29T07:23:55;20.80;;;5.18;;
71475;SDS011;59286;59.274;17.974;2023-12-29T07:26:20;15.13;;;4.22;;
71475;SDS011;59286;59.274;17.974;2023-12-29T07:28:46;13.32;;;4.45;;
71475;SDS011;59286;59.274;17.974;2023-12-29T07:31:11;14.55;;;4.18;;
71475;SDS011;59286;59.274;17.974;2023-12-29T07:33:37;17.40;;;4.18;;
71475;SDS011;59286;59.274;17.974;2023-12-29T07:36:02;14.27;;;3.88;;
71475;SDS011;59286;59.274;17.974;2023-12-29T07:38:28;15.13;;;3.20;;
71475;SDS011;59286;59.274;17.974;2023-12-29T07:40:53;15.70;;;3.20;;
71475;SDS011;59286;59.274;17.974;2023-12-29T07:43:20;16.60;;;3.75;;
71475;SDS011;59286;59.274;17.974;2023-12-29T07:45:46;17.45;;;3.45;;
71475;SDS011;59286;59.274;17.974;2023-12-29T07:48:12;7.97;;;2.45;;
71475;SDS011;59286;59.274;17.974;2023-12-29T07:50:37;14.52;;;3.20;;
71475;SDS011;59286;59.274;17.974;2023-12-29T07:53:03;8.68;;;2.28;;
71475;SDS011;59286;59.274;17.974;2023-12-29T07:55:30;14.25;;;2.80;;
71475;SDS011;59286;59.274;17.974;2023-12-29T07:57:56;15.48;;;2.78;;
71475;SDS011;59286;59.274;17.974;2023-12-29T08:00:21;8.77;;;2.67;;
71475;SDS011;59286;59.274;17.974;2023-12-29T08:02:48;15.02;;;3.25;;
71475;SDS011;59286;59.274;17.974;2023-12-29T08:05:14;12.23;;;2.63;;
71475;SDS011;59286;59.274;17.974;2023-12-29T08:07:40;11.35;;;2.38;;
71475;SDS011;59286;59.274;17.974;2023-12-29T08:10:06;10.90;;;2.20;;
71475;SDS011;59286;59.274;17.974;2023-12-29T08:12:32;10.82;;;2.40;;
71475;SDS011;59286;59.274;17.974;2023-12-29T08:15:03;11.95;;;2.80;;
71475;SDS011;59286;59.274;17.974;2023-12-29T08:17:29;15.30;;;2.70;;
71475;SDS011;59286;59.274;17.974;2023-12-29T08:19:56;15.32;;;2.80;;
71475;SDS011;59286;59.274;17.974;2023-12-29T08:22:21;12.13;;;2.78;;
71475;SDS011;59286;59.274;17.974;2023-12-29T08:24:47;15.95;;;2.80;;
71475;SDS011;59286;59.274;17.974;2023-12-29T08:27:12;15.68;;;3.25;;
71475;SDS011;59286;59.274;17.974;2023-12-29T08:29:38;15.60;;;3.20;;
71475;SDS011;59286;59.274;17.974;2023-12-29T08:32:05;11.80;;;2.80;;
71475;SDS011;59286;59.274;17.974;2023-12-29T08:34:31;11.55;;;2.55;;
71475;SDS011;59286;59.274;17.974;2023-12-29T08:36:59;13.18;;;2.65;;
71475;SDS011;59286;59.274;17.974;2023-12-29T08:39:24;12.50;;;3.20;;
71475;SDS011;59286;59.274;17.974;2023-12-29T08:41:50;11.43;;;2.83;;
71475;SDS011;59286;59.274;17.974;2023-12-29T08:44:15;13.65;;;2.63;;
71475;SDS011;59286;59.274;17.974;2023-12-29T08:46:41;16.60;;;3.40;;
71475;SDS011;59286;59.274;17.974;2023-12-29T08:49:06;9.43;;;2.25;;
71475;SDS011;59286;59.274;17.974;2023-12-29T08:51:32;10.98;;;2.75;;
71475;SDS011;59286;59.274;17.974;2023-12-29T08:53:58;12.68;;;2.60;;
71475;SDS011;59286;59.274;17.974;2023-12-29T08:56:24;17.45;;;2.60;;
71475;SDS011;59286;59.274;17.974;2023-12-29T08:58:49;13.05;;;2.65;;
71475;SDS011;59286;59.274;17.974;2023-12-29T09:01:14;14.25;;;2.22;;
71475;SDS011;59286;59.274;17.974;2023-12-29T09:03:40;12.50;;;2.47;;
71475;SDS011;59286;59.274;17.974;2023-12-29T09:06:05;12.55;;;2.75;;
71475;SDS011;59286;59.274;17.974;2023-12-29T09:08:33;17.10;;;2.63;;
71475;SDS011;59286;59.274;17.974;2023-12-29T09:10:59;11.30;;;2.55;;
71475;SDS011;59286;59.274;17.974;2023-12-29T09:13:24;13.30;;;2.08;;
71475;SDS011;59286;59.274;17.974;2023-12-29T09:15:51;13.10;;;2.45;;
71475;SDS011;59286;59.274;17.974;2023-12-29T09:18:17;14.00;;;2.35;;
71475;SDS011;59286;59.274;17.974;2023-12-29T09:20:43;11.93;;;2.40;;
71475;SDS011;59286;59.274;17.974;2023-12-29T09:23:08;14.07;;;2.30;;
71475;SDS011;59286;59.274;17.974;2023-12-29T09:25:36;13.25;;;2.50;;
71475;SDS011;59286;59.274;17.974;2023-12-29T09:28:02;12.10;;;2.35;;
71475;SDS011;59286;59.274;17.974;2023-12-29T09:30:29;19.27;;;2.88;;
71475;SDS011;59286;59.274;17.974;2023-12-29T09:32:54;14.05;;;3.10;;
71475;SDS011;59286;59.274;17.974;2023-12-29T09:35:20;12.57;;;3.00;;
71475;SDS011;59286;59.274;17.974;2023-12-29T09:37:47;14.30;;;2.78;;
71475;SDS011;59286;59.274;17.974;2023-12-29T09:40:13;15.77;;;2.50;;
71475;SDS011;59286;59.274;17.974;2023-12-29T09:42:39;15.45;;;2.88;;
71475;SDS011;59286;59.274;17.974;2023-12-29T09:45:08;17.75;;;2.67;;
71475;SDS011;59286;59.274;17.974;2023-12-29T09:47:37;10.85;;;2.50;;
71475;SDS011;59286;59.274;17.974;2023-12-29T09:50:12;16.85;;;2.80;;
71475;SDS011;59286;59.274;17.974;2023-12-29T09:52:39;19.60;;;2.50;;
71475;SDS011;59286;59.274;17.974;2023-12-29T09:55:07;8.82;;;2.47;;
71475;SDS011;59286;59.274;17.974;2023-12-29T09:57:40;11.90;;;2.90;;
71475;SDS011;59286;59.274;17.974;2023-12-29T10:00:06;15.18;;;2.72;;
71475;SDS011;59286;59.274;17.974;2023-12-29T10:02:35;14.43;;;2.20;;
71475;SDS011;59286;59.274;17.974;2023-12-29T10:05:01;10.13;;;2.67;;
71475;SDS011;59286;59.274;17.974;2023-12-29T10:07:28;15.70;;;2.42;;
71475;SDS011;59286;59.274;17.974;2023-12-29T10:09:57;9.70;;;2.03;;
71475;SDS011;59286;59.274;17.974;2023-12-29T10:12:27;11.50;;;2.45;;
71475;SDS011;59286;59.274;17.974;2023-12-29T10:15:01;15.10;;;2.75;;
71475;SDS011;59286;59.274;17.974;2023-12-29T10:17:48;14.43;;;2.60;;
71475;SDS011;59286;59.274;17.974;2023-12-29T10:20:38;16.38;;;3.00;;
71475;SDS011;59286;59.274;17.974;2023-12-29T10:23:20;26.20;;;2.90;;
71475;SDS011;59286;59.274;17.974;2023-12-29T10:25:53;21.65;;;2.60;;
71475;SDS011;59286;59.274;17.974;2023-12-29T10:28:19;20.30;;;2.75;;
71475;SDS011;59286;59.274;17.974;2023-12-29T10:30:46;18.58;;;2.75;;
71475;SDS011;59286;59.274;17.974;2023-12-29T10:33:18;21.90;;;4.40;;
71475;SDS011;59286;59.274;17.974;2023-12-29T10:36:04;20.95;;;3.83;;
71475;SDS011;59286;59.274;17.974;2023-12-29T10:38:32;18.05;;;3.65;;
71475;SDS011;59286;59.274;17.974;2023-12-29T10:41:17;19.50;;;4.38;;
71475;SDS011;59286;59.274;17.974;2023-12-29T10:43:44;24.65;;;3.80;;
71475;SDS011;59286;59.274;17.974;2023-12-29T10:46:17;20.38;;;3.30;;
71475;SDS011;59286;59.274;17.974;2023-12-29T10:48:42;21.05;;;3.35;;
71475;SDS011;59286;59.274;17.974;2023-12-29T10:51:08;19.20;;;3.20;;
71475;SDS011;59286;59.274;17.974;2023-12-29T10:53:35;21.73;;;3.42;;
71475;SDS011;59286;59.274;17.974;2023-12-29T10:56:01;15.50;;;2.90;;
71475;SDS011;59286;59.274;17.974;2023-12-29T10:58:26;20.35;;;3.78;;
71475;SDS011;59286;59.274;17.974;2023-12-29T11:00:54;21.33;;;3.55;;
71475;SDS011;59286;59.274;17.974;2023-12-29T11:03:21;16.35;;;2.85;;
71475;SDS011;59286;59.274;17.974;2023-12-29T11:05:47;22.40;;;3.22;;
71475;SDS011;59286;59.274;17.974;2023-12-29T11:08:16;23.90;;;3.17;;
71475;SDS011;59286;59.274;17.974;2023-12-29T11:10:47;20.73;;;2.90;;
71475;SDS011;59286;59.274;17.974;2023-12-29T11:13:14;22.38;;;3.47;;
71475;SDS011;59286;59.274;17.974;2023-12-29T11:15:43;17.25;;;2.88;;
71475;SDS011;59286;59.274;17.974;2023-12-29T11:18:13;20.02;;;3.05;;
71475;SDS011;59286;59.274;17.974;2023-12-29T11:20:40;18.98;;;2.97;;
71475;SDS011;59286;59.274;17.974;2023-12-29T11:23:06;20.23;;;3.03;;
71475;SDS011;59286;59.274;17.974;2023-12-29T11:25:35;20.80;;;2.90;;
71475;SDS011;59286;59.274;17.974;2023-12-29T11:28:01;17.65;;;2.80;;
71475;SDS011;59286;59.274;17.974;2023-12-29T11:30:27;20.90;;;3.10;;
71475;SDS011;59286;59.274;17.974;2023-12-29T11:38:01;17.27;;;3.20;;
71475;SDS011;59286;59.274;17.974;2023-12-29T11:40:52;30.77;;;3.70;;
71475;SDS011;59286;59.274;17.974;2023-12-29T11:43:30;26.70;;;3.95;;
71475;SDS011;59286;59.274;17.974;2023-12-29T11:45:56;24.08;;;3.72;;
71475;SDS011;59286;59.274;17.974;2023-12-29T11:54:27;27.40;;;3.40;;
71475;SDS011;59286;59.274;17.974;2023-12-29T11:56:55;12.40;;;2.75;;
71475;SDS011;59286;59.274;17.974;2023-12-29T12:01:53;19.45;;;3.35;;
71475;SDS011;59286;59.274;17.974;2023-12-29T12:10:28;22.80;;;4.05;;
71475;SDS011;59286;59.274;17.974;2023-12-29T12:12:44;22.83;;;3.47;;
71475;SDS011;59286;59.274;17.974;2023-12-29T12:15:31;21.95;;;4.60;;
71475;SDS011;59286;59.274;17.974;2023-12-29T12:17:59;21.17;;;3.92;;
71475;SDS011;59286;59.274;17.974;2023-12-29T12:20:29;23.08;;;4.20;;
71475;SDS011;59286;59.274;17.974;2023-12-29T12:23:28;28.15;;;4.85;;
71475;SDS011;59286;59.274;17.974;2023-12-29T12:25:49;30.40;;;5.05;;
71475;SDS011;59286;59.274;17.974;2023-12-29T12:28:21;25.75;;;6.60;;
71475;SDS011;59286;59.274;17.974;2023-12-29T12:30:47;27.85;;;6.25;;
71475;SDS011;59286;59.274;17.974;2023-12-29T12:33:13;20.13;;;4.28;;
71475;SDS011;59286;59.274;17.974;2023-12-29T12:35:39;32.63;;;5.35;;
71475;SDS011;59286;59.274;17.974;2023-12-29T12:38:12;22.92;;;4.70;;
71475;SDS011;59286;59.274;17.974;2023-12-29T12:40:38;35.20;;;4.68;;
71475;SDS011;59286;59.274;17.974;2023-12-29T12:43:04;26.33;;;3.92;;
71475;SDS011;59286;59.274;17.974;2023-12-29T12:45:35;30.90;;;4.10;;
71475;SDS011;59286;59.274;17.974;2023-12-29T12:48:49;24.73;;;5.82;;
71475;SDS011;59286;59.274;17.974;2023-12-29T12:51:01;27.70;;;6.07;;
71475;SDS011;59286;59.274;17.974;2023-12-29T12:53:28;26.85;;;6.97;;
71475;SDS011;59286;59.274;17.974;2023-12-29T12:55:54;31.33;;;7.30;;
71475;SDS011;59286;59.274;17.974;2023-12-29T12:58:20;17.45;;;5.10;;
71475;SDS011;59286;59.274;17.974;2023-12-29T13:00:46;30.42;;;5.50;;
71475;SDS011;59286;59.274;17.974;2023-12-29T13:03:11;22.92;;;4.57;;
71475;SDS011;59286;59.274;17.974;2023-12-29T13:05:37;29.20;;;4.88;;
71475;SDS011;59286;59.274;17.974;2023-12-29T13:08:03;22.17;;;4.25;;
71475;SDS011;59286;59.274;17.974;2023-12-29T13:10:30;22.75;;;5.00;;
71475;SDS011;59286;59.274;17.974;2023-12-29T13:12:56;27.35;;;5.40;;
71475;SDS011;59286;59.274;17.974;2023-12-29T13:15:21;23.35;;;4.05;;
71475;SDS011;59286;59.274;17.974;2023-12-29T13:17:53;20.52;;;3.83;;
71475;SDS011;59286;59.274;17.974;2023-12-29T13:20:19;25.65;;;3.50;;
71475;SDS011;59286;59.274;17.974;2023-12-29T13:22:51;29.27;;;3.90;;
71475;SDS011;59286;59.274;17.974;2023-12-29T13:25:18;27.92;;;4.00;;
71475;SDS011;59286;59.274;17.974;2023-12-29T13:27:45;23.08;;;3.50;;
71475;SDS011;59286;59.274;17.974;2023-12-29T13:30:12;19.27;;;3.20;;
71475;SDS011;59286;59.274;17.974;2023-12-29T13:32:40;19.02;;;2.92;;
71475;SDS011;59286;59.274;17.974;2023-12-29T13:35:18;16.88;;;3.33;;
71475;SDS011;59286;59.274;17.974;2023-12-29T13:37:50;19.02;;;3.30;;
71475;SDS011;59286;59.274;17.974;2023-12-29T13:40:24;17.33;;;3.85;;
71475;SDS011;59286;59.274;17.974;2023-12-29T13:42:56;22.65;;;3.78;;
71475;SDS011;59286;59.274;17.974;2023-12-29T13:45:24;24.75;;;4.13;;
71475;SDS011;59286;59.274;17.974;2023-12-29T13:47:51;23.05;;;4.38;;
71475;SDS011;59286;59.274;17.974;2023-12-29T13:50:18;32.05;;;4.50;;
71475;SDS011;59286;59.274;17.974;2023-12-29T13:52:44;17.77;;;3.63;;
71475;SDS011;59286;59.274;17.974;2023-12-29T13:55:09;23.85;;;3.75;;
71475;SDS011;59286;59.274;17.974;2023-12-29T13:57:35;26.65;;;3.45;;
71475;SDS011;59286;59.274;17.974;2023-12-29T14:00:20;21.92;;;4.55;;
71475;SDS011;59286;59.274;17.974;2023-12-29T14:08:17;20.90;;;4.15;;
71475;SDS011;59286;59.274;17.974;2023-12-29T14:10:48;25.98;;;5.10;;
71475;SDS011;59286;59.274;17.974;2023-12-29T14:13:14;28.52;;;4.72;;
71475;SDS011;59286;59.274;17.974;2023-12-29T14:15:41;32.63;;;6.78;;
71475;SDS011;59286;59.274;17.974;2023-12-29T14:20:40;34.30;;;5.70;;
71475;SDS011;59286;59.274;17.974;2023-12-29T14:23:06;19.42;;;3.95;;
71475;SDS011;59286;59.274;17.974;2023-12-29T14:25:35;30.65;;;5.53;;
71475;SDS011;59286;59.274;17.974;2023-12-29T14:28:02;24.20;;;4.90;;
71475;SDS011;59286;59.274;17.974;2023-12-29T14:30:29;32.95;;;5.20;;
71475;SDS011;59286;59.274;17.974;2023-12-29T14:32:57;18.70;;;3.67;;
71475;SDS011;59286;59.274;17.974;2023-12-29T14:35:31;34.45;;;5.50;;
71475;SDS011;59286;59.274;17.974;2023-12-29T14:37:56;32.65;;;5.13;;
71475;SDS011;59286;59.274;17.974;2023-12-29T14:40:22;27.45;;;4.18;;
71475;SDS011;59286;59.274;17.974;2023-12-29T14:42:47;16.45;;;4.05;;
71475;SDS011;59286;59.274;17.974;2023-12-29T14:45:13;29.00;;;4.82;;
71475;SDS011;59286;59.274;17.974;2023-12-29T14:47:38;15.95;;;3.75;;
71475;SDS011;59286;59.274;17.974;2023-12-29T14:50:04;26.02;;;4.15;;
71475;SDS011;59286;59.274;17.974;2023-12-29T14:52:30;23.48;;;4.15;;
71475;SDS011;59286;59.274;17.974;2023-12-29T14:54:55;21.80;;;4.85;;